Stonewall Jackson Training S, North Carolina
Current Conditions -  °F | °C
As of 8:55 PM on Friday 24 Oct 2014 (Local Time) from KJQF Reporting Station
Clear Clear  
Wind Chill: 52°   Ceiling: Unl
Heat Index: 52°   Visibility: 10mi
Dew Point: 46°   Wind: 0mph
Humidity: 82%   Direction: NA
Pressure: 30.04"   Gusts: NA
Location:  35.3735°N, 80.5212°W
Report Text: KJQF 250055Z 00000KT 10SM CLR 11/08 A3004
Loading
Personal Weather Stations






























Interactive Weather Map
Tropical Storm Tracking
New forecast layout! Learn more

10-Day Weather Forecast

Advertisements
Track Severe Weather on mobile